Aviation Digital Data Service (ADDS)

Output produced by METARs form (1422 UTC 07 December 2016)
found at http://aviationweather.gov/adds/metars/
 
KACK 071137Z 0712/0812 06012KT P6SM -RA OVC050 
     FM071300 07011KT P6SM VCSH OVC030 
     FM071900 07004KT P6SM OVC035 
     FM072300 VRB03KT P6SM BKN030 
     FM080700 27005KT P6SM BKN015